createdAt,value
2022-12-18T00:01:17.655Z,101849.81
2022-12-18T00:03:21.087Z,101848.13
2022-12-18T00:05:23.960Z,101846.38
2022-12-18T00:07:26.804Z,101842.13
2022-12-18T00:09:31.322Z,101849.91
2022-12-18T00:11:43.973Z,101851.41
2022-12-18T00:13:47.641Z,101837.78
2022-12-18T00:15:50.540Z,101839.22
2022-12-18T00:17:53.731Z,101843.69
2022-12-18T00:19:56.621Z,101845.28
2022-12-18T00:21:59.484Z,101848.19
2022-12-18T00:24:02.399Z,101855.81
2022-12-18T00:26:06.971Z,101849.78
2022-12-18T00:28:11.339Z,101846.09
2022-12-18T00:30:14.882Z,101853.66
2022-12-18T00:32:18.530Z,101848.44
2022-12-18T00:34:21.436Z,101857.56
2022-12-18T00:36:26.818Z,101859.16
2022-12-18T00:38:29.800Z,101856.53
2022-12-18T00:40:32.740Z,101866.00
2022-12-18T00:42:56.249Z,101866.00
2022-12-18T00:45:01.322Z,101860.53
2022-12-18T00:47:04.253Z,101861.50
2022-12-18T00:49:07.941Z,101865.94
2022-12-18T00:51:11.065Z,101858.13
2022-12-18T00:53:14.336Z,101859.91
2022-12-18T00:55:17.878Z,101857.25
2022-12-18T00:57:20.786Z,101861.50
2022-12-18T00:59:23.587Z,101867.47
2022-12-18T01:01:28.693Z,101870.03
2022-12-18T01:03:31.659Z,101865.75
2022-12-18T01:05:35.142Z,101869.13
2022-12-18T01:07:38.048Z,101861.03
2022-12-18T01:09:41.073Z,101855.19
2022-12-18T01:11:44.026Z,101860.31
2022-12-18T01:13:47.726Z,101861.03
2022-12-18T01:15:51.194Z,101847.25
2022-12-18T01:17:55.646Z,101849.72
2022-12-18T01:19:58.911Z,101851.41
2022-12-18T01:22:02.948Z,101853.03
2022-12-18T01:24:07.059Z,101856.06
2022-12-18T01:26:11.944Z,101857.44
2022-12-18T01:28:15.074Z,101858.75
2022-12-18T01:30:18.063Z,101856.94
2022-12-18T01:32:23.150Z,101850.06
2022-12-18T01:34:28.284Z,101863.44
2022-12-18T01:36:33.623Z,101862.59
2022-12-18T01:38:36.658Z,101871.94
2022-12-18T01:40:39.517Z,101867.03
2022-12-18T01:42:42.399Z,101861.75
2022-12-18T01:45:07.190Z,101865.03
2022-12-18T01:47:10.177Z,101855.56
2022-12-18T01:49:13.065Z,101860.34
2022-12-18T01:51:18.154Z,101847.53
2022-12-18T01:53:23.449Z,101837.94
2022-12-18T01:55:28.073Z,101836.97
2022-12-18T01:57:31.123Z,101838.88
2022-12-18T01:59:35.080Z,101843.22
2022-12-18T02:01:38.927Z,101842.19
2022-12-18T02:03:44.065Z,101844.50
2022-12-18T02:05:49.898Z,101846.44
2022-12-18T02:08:02.576Z,101845.97
2022-12-18T02:10:13.404Z,101845.72
2022-12-18T02:12:20.159Z,101841.97
2022-12-18T02:14:27.816Z,101846.66
2022-12-18T02:16:37.666Z,101847.72
2022-12-18T02:18:43.327Z,101842.69
2022-12-18T02:20:50.058Z,101845.13
2022-12-18T02:23:06.782Z,101835.97
2022-12-18T02:25:18.858Z,101830.94
2022-12-18T02:27:23.242Z,101845.63
2022-12-18T02:29:29.390Z,101832.81
2022-12-18T02:31:37.756Z,101836.50
2022-12-18T02:33:41.903Z,101831.97
2022-12-18T02:35:46.776Z,101830.84
2022-12-18T02:37:50.263Z,101831.22
2022-12-18T02:39:55.300Z,101830.78
2022-12-18T02:41:58.970Z,101821.78
2022-12-18T02:44:09.665Z,101825.97
2022-12-18T02:46:28.478Z,101824.91
2022-12-18T02:48:35.354Z,101814.38
2022-12-18T02:50:42.637Z,101825.88
2022-12-18T02:52:54.932Z,101821.00
2022-12-18T02:55:03.253Z,101818.28
2022-12-18T02:57:14.280Z,101827.53
2022-12-18T02:59:25.043Z,101829.84
2022-12-18T03:01:35.684Z,101815.66
2022-12-18T03:03:42.863Z,101817.56
2022-12-18T03:05:49.601Z,101814.44
2022-12-18T03:07:56.252Z,101813.16
2022-12-18T03:10:00.906Z,101816.28
2022-12-18T03:12:25.639Z,101810.00
2022-12-18T03:14:34.313Z,101809.44
2022-12-18T03:16:38.875Z,101805.50
2022-12-18T03:18:45.564Z,101795.50
2022-12-18T03:20:50.270Z,101796.78
2022-12-18T03:23:01.809Z,101798.81
2022-12-18T03:25:07.693Z,101802.34
2022-12-18T03:27:14.546Z,101807.13
2022-12-18T03:29:20.328Z,101800.47
2022-12-18T03:31:27.320Z,101807.81
2022-12-18T03:33:32.946Z,101804.94
2022-12-18T03:35:38.542Z,101800.88
2022-12-18T03:37:41.824Z,101799.09
2022-12-18T03:39:45.064Z,101799.56
2022-12-18T03:41:53.356Z,101799.44
2022-12-18T03:44:23.576Z,101794.28
2022-12-18T03:46:31.037Z,101792.38
2022-12-18T03:48:36.451Z,101787.22
2022-12-18T03:50:48.415Z,101786.09
2022-12-18T03:52:59.858Z,101781.97
2022-12-18T03:55:05.886Z,101784.59
2022-12-18T03:57:12.642Z,101786.41
2022-12-18T03:59:17.801Z,101795.34
2022-12-18T04:01:24.682Z,101803.88
2022-12-18T04:03:31.030Z,101805.41
2022-12-18T04:05:35.520Z,101800.84
2022-12-18T04:07:40.416Z,101799.56
2022-12-18T04:09:45.946Z,101796.53
2022-12-18T04:11:50.134Z,101803.00
2022-12-18T04:13:57.453Z,101792.56
2022-12-18T04:16:00.620Z,101794.19
2022-12-18T04:18:04.483Z,101796.44
2022-12-18T04:20:15.906Z,101791.00
2022-12-18T04:22:20.474Z,101794.94
2022-12-18T04:24:27.511Z,101791.06
2022-12-18T04:26:42.773Z,101788.88
2022-12-18T04:28:54.148Z,101776.41
2022-12-18T04:30:57.469Z,101781.44
2022-12-18T04:33:00.335Z,101784.75
2022-12-18T04:35:05.139Z,101786.88
2022-12-18T04:37:10.429Z,101791.78
2022-12-18T04:39:13.617Z,101790.84
2022-12-18T04:41:17.832Z,101788.94
2022-12-18T04:43:23.720Z,101798.84
2022-12-18T04:45:26.636Z,101790.91
2022-12-18T04:47:29.479Z,101797.97
2022-12-18T04:49:32.486Z,101787.13
2022-12-18T04:51:35.402Z,101792.97
2022-12-18T04:53:41.162Z,101789.47
2022-12-18T04:55:44.609Z,101786.41
2022-12-18T04:57:48.045Z,101788.31
2022-12-18T04:59:50.947Z,101793.69
2022-12-18T05:01:54.237Z,101783.19
2022-12-18T05:03:57.211Z,101787.22
2022-12-18T05:06:00.035Z,101775.50
2022-12-18T05:08:02.874Z,101776.63
2022-12-18T05:10:08.533Z,101769.59
2022-12-18T05:12:11.419Z,101766.16
2022-12-18T05:14:35.162Z,101769.69
2022-12-18T05:16:40.314Z,101757.81
2022-12-18T05:18:51.781Z,101759.69
2022-12-18T05:21:01.039Z,101754.88
2022-12-18T05:23:06.981Z,101742.09
2022-12-18T05:25:14.150Z,101740.59
2022-12-18T05:27:21.812Z,101745.91
2022-12-18T05:29:28.924Z,101742.66
2022-12-18T05:31:39.432Z,101731.38
2022-12-18T05:33:44.733Z,101740.16
2022-12-18T05:35:53.587Z,101731.91
2022-12-18T05:37:57.075Z,101725.97
2022-12-18T05:40:06.280Z,101729.56
2022-12-18T05:42:13.848Z,101726.72
2022-12-18T05:44:20.412Z,101724.16
2022-12-18T05:46:26.922Z,101726.84
2022-12-18T05:48:32.024Z,101721.47
2022-12-18T05:53:16.663Z,101729.44
2022-12-18T05:55:25.256Z,101737.94
2022-12-18T05:57:29.910Z,101744.09
2022-12-18T05:59:33.289Z,101746.75
2022-12-18T06:01:36.356Z,101746.75
2022-12-18T06:03:40.318Z,101756.41
2022-12-18T06:05:45.332Z,101765.19
2022-12-18T06:07:48.215Z,101759.97
2022-12-18T06:09:52.532Z,101773.78
2022-12-18T06:11:58.351Z,101762.75
2022-12-18T06:14:05.360Z,101757.63
2022-12-18T06:16:16.697Z,101763.63
2022-12-18T06:18:23.974Z,101759.50
2022-12-18T06:20:33.625Z,101763.00
2022-12-18T06:22:41.801Z,101769.31
2022-12-18T06:24:48.101Z,101771.16
2022-12-18T06:26:51.764Z,101774.69
2022-12-18T06:28:56.046Z,101774.56
2022-12-18T06:31:06.196Z,101772.16
2022-12-18T06:33:14.028Z,101774.88
2022-12-18T06:35:26.972Z,101787.50
2022-12-18T06:37:34.849Z,101783.47
2022-12-18T06:39:39.316Z,101773.75
2022-12-18T06:41:47.028Z,101775.22
2022-12-18T06:43:52.859Z,101779.03
2022-12-18T06:46:04.536Z,101782.41
2022-12-18T06:48:11.665Z,101781.75
2022-12-18T06:50:21.887Z,101787.97
2022-12-18T06:52:33.248Z,101770.88
2022-12-18T06:54:39.422Z,101770.94
2022-12-18T06:56:47.581Z,101775.19
2022-12-18T06:58:54.911Z,101764.91
2022-12-18T07:01:15.103Z,101766.88
2022-12-18T07:03:23.204Z,101768.47
2022-12-18T07:05:26.058Z,101761.56
2022-12-18T07:07:33.708Z,101753.72
2022-12-18T07:09:39.091Z,101754.56
2022-12-18T07:11:46.969Z,101750.19
2022-12-18T07:13:50.703Z,101750.91
2022-12-18T07:15:55.898Z,101751.06
2022-12-18T07:18:13.949Z,101751.94
2022-12-18T07:20:20.460Z,101745.91
2022-12-18T07:22:23.545Z,101754.66
2022-12-18T07:24:29.896Z,101762.41
2022-12-18T07:26:33.129Z,101745.16
2022-12-18T07:28:38.260Z,101744.25
2022-12-18T07:30:47.523Z,101748.47
2022-12-18T07:32:58.433Z,101750.25
2022-12-18T07:35:07.294Z,101739.25
2022-12-18T07:37:13.184Z,101740.91
2022-12-18T07:39:16.178Z,101727.34
2022-12-18T07:41:20.894Z,101737.84
2022-12-18T07:43:33.061Z,101729.25
2022-12-18T07:45:37.204Z,101732.03
2022-12-18T07:47:44.570Z,101735.06
2022-12-18T07:49:58.495Z,101733.41
2022-12-18T07:52:06.699Z,101731.09
2022-12-18T07:54:11.958Z,101733.00
2022-12-18T07:56:27.055Z,101733.22
2022-12-18T07:58:31.205Z,101730.94
2022-12-18T08:00:37.663Z,101733.66
2022-12-18T08:02:46.498Z,101743.31
2022-12-18T08:04:52.580Z,101750.38
2022-12-18T08:06:55.616Z,101754.91
2022-12-18T08:09:05.480Z,101737.84
2022-12-18T08:11:10.376Z,101744.13
2022-12-18T08:13:16.471Z,101737.47
2022-12-18T08:15:25.204Z,101733.31
2022-12-18T08:17:28.081Z,101722.19
2022-12-18T08:19:33.878Z,101717.06
2022-12-18T08:21:42.063Z,101720.56
2022-12-18T08:23:51.095Z,101725.81
2022-12-18T08:25:57.421Z,101720.75
2022-12-18T08:28:01.778Z,101713.06
2022-12-18T08:30:07.615Z,101705.28
2022-12-18T08:32:12.503Z,101706.13
2022-12-18T08:34:20.122Z,101703.47
2022-12-18T08:36:25.446Z,101694.84
2022-12-18T08:38:36.329Z,101708.72
2022-12-18T08:40:56.126Z,101688.03
2022-12-18T08:43:26.227Z,101682.72
2022-12-18T08:45:32.651Z,101669.88
2022-12-18T08:47:46.370Z,101665.53
2022-12-18T08:49:59.611Z,101669.47
2022-12-18T08:52:05.821Z,101668.19
2022-12-18T08:54:15.114Z,101674.72
2022-12-18T08:56:19.726Z,101661.31
2022-12-18T08:58:37.780Z,101655.44
2022-12-18T09:00:42.333Z,101656.63
2022-12-18T09:02:47.618Z,101654.25
2022-12-18T09:04:57.592Z,101660.56
2022-12-18T09:07:26.175Z,101662.28
2022-12-18T09:09:33.513Z,101672.91
2022-12-18T09:11:39.387Z,101675.06
2022-12-18T09:13:52.343Z,101673.72
2022-12-18T09:16:04.055Z,101672.06
2022-12-18T09:18:10.175Z,101663.63
2022-12-18T09:20:16.118Z,101664.53
2022-12-18T09:22:20.817Z,101664.75
2022-12-18T09:24:27.728Z,101658.69
2022-12-18T09:26:43.499Z,101663.84
2022-12-18T09:28:54.697Z,101656.06
2022-12-18T09:31:06.364Z,101655.84
2022-12-18T09:33:14.163Z,101651.81
2022-12-18T09:35:37.364Z,101645.88
2022-12-18T09:37:46.599Z,101647.53
2022-12-18T09:39:54.298Z,101652.69
2022-12-18T09:41:59.655Z,101652.75
2022-12-18T09:44:16.874Z,101644.16
2022-12-18T09:46:27.208Z,101642.66
2022-12-18T09:48:37.141Z,101637.53
2022-12-18T09:50:43.874Z,101626.56
2022-12-18T09:53:02.940Z,101631.72
2022-12-18T09:55:12.817Z,101630.91
2022-12-18T09:57:26.246Z,101623.22
2022-12-18T09:59:50.451Z,101625.59
2022-12-18T10:01:58.481Z,101624.81
2022-12-18T10:04:04.118Z,101629.25
2022-12-18T10:06:15.569Z,101625.81
2022-12-18T10:08:29.559Z,101626.75
2022-12-18T10:10:47.689Z,101631.25
2022-12-18T10:13:04.084Z,101631.09
2022-12-18T10:15:12.759Z,101638.06
2022-12-18T10:17:22.960Z,101628.50
2022-12-18T10:19:37.312Z,101617.34
2022-12-18T10:21:46.554Z,101611.28
2022-12-18T10:23:56.567Z,101608.78
2022-12-18T10:26:04.954Z,101597.59
2022-12-18T10:28:13.392Z,101595.97
2022-12-18T10:30:19.912Z,101596.00
2022-12-18T10:32:25.922Z,101594.31
2022-12-18T10:34:28.853Z,101596.09
2022-12-18T10:36:32.082Z,101602.25
2022-12-18T10:38:35.037Z,101591.91
2022-12-18T10:40:51.899Z,101584.06
2022-12-18T10:43:05.943Z,101567.41
2022-12-18T10:45:12.551Z,101563.16
2022-12-18T10:47:20.204Z,101562.34
2022-12-18T10:49:25.320Z,101557.03
2022-12-18T10:51:31.382Z,101543.13
2022-12-18T10:53:37.493Z,101542.19
2022-12-18T10:55:41.730Z,101534.38
2022-12-18T10:57:45.392Z,101540.50
2022-12-18T10:59:54.301Z,101546.53
2022-12-18T11:01:58.538Z,101541.41
2022-12-18T11:04:07.386Z,101543.19
2022-12-18T11:06:12.627Z,101540.56
2022-12-18T11:08:25.855Z,101536.22
2022-12-18T11:10:32.319Z,101534.53
2022-12-18T11:12:35.208Z,101534.63
2022-12-18T11:14:47.393Z,101529.41
2022-12-18T11:19:29.944Z,101525.91
2022-12-18T11:21:41.567Z,101525.97
2022-12-18T11:23:49.530Z,101518.19
2022-12-18T11:25:57.908Z,101526.88
2022-12-18T11:28:02.725Z,101515.53
2022-12-18T11:30:23.717Z,101515.53
2022-12-18T11:32:36.328Z,101509.47
2022-12-18T11:34:41.259Z,101502.53
2022-12-18T11:36:47.175Z,101505.97
2022-12-18T11:38:51.129Z,101500.72
2022-12-18T11:41:01.471Z,101501.63
2022-12-18T11:43:12.086Z,101502.50
2022-12-18T11:45:28.141Z,101503.34
2022-12-18T11:47:36.366Z,101503.34
2022-12-18T11:49:56.437Z,101498.13
2022-12-18T11:52:04.032Z,101487.63
2022-12-18T11:54:14.218Z,101479.84
2022-12-18T11:56:31.872Z,101473.78
2022-12-18T11:58:45.946Z,101461.53
2022-12-18T12:01:00.089Z,101458.94
2022-12-18T12:03:28.099Z,101451.13
2022-12-18T12:05:41.910Z,101459.78
2022-12-18T12:07:54.201Z,101448.50
2022-12-18T12:10:06.630Z,101443.25
2022-12-18T12:12:27.385Z,101448.47
2022-12-18T12:14:40.800Z,101448.47
2022-12-18T12:16:49.122Z,101444.13
2022-12-18T12:19:15.992Z,101434.56
2022-12-18T12:21:23.551Z,101434.50
2022-12-18T12:23:36.013Z,101440.63
2022-12-18T12:25:43.000Z,101442.34
2022-12-18T12:27:57.694Z,101437.13
2022-12-18T12:30:13.483Z,101439.78
2022-12-18T12:32:30.472Z,101428.47
2022-12-18T12:34:37.048Z,101431.97
2022-12-18T12:36:52.056Z,101431.06
2022-12-18T12:38:57.910Z,101428.47
2022-12-18T12:41:31.287Z,101413.66
2022-12-18T12:43:40.363Z,101417.13
2022-12-18T12:46:02.429Z,101417.13
2022-12-18T12:48:08.512Z,101407.56
2022-12-18T12:50:17.699Z,101411.06
2022-12-18T12:52:30.356Z,101404.06
2022-12-18T12:54:53.009Z,101396.25
2022-12-18T12:57:04.517Z,101386.69
2022-12-18T12:59:16.443Z,101398.00
2022-12-18T13:01:30.219Z,101402.34
2022-12-18T13:03:44.250Z,101391.88
2022-12-18T13:06:07.561Z,101389.25
2022-12-18T13:08:18.316Z,101399.69
2022-12-18T13:10:36.014Z,101393.63
2022-12-18T13:12:56.923Z,101394.47
2022-12-18T13:15:20.639Z,101395.34
2022-12-18T13:17:32.105Z,101397.97
2022-12-18T13:19:38.219Z,101394.47
2022-12-18T13:21:42.738Z,101393.59
2022-12-18T13:23:47.417Z,101394.47
2022-12-18T13:25:50.330Z,101390.09
2022-12-18T13:28:19.587Z,101390.09
2022-12-18T13:30:54.363Z,101393.59
2022-12-18T13:34:01.997Z,101381.41
2022-12-18T13:36:16.201Z,101378.75
2022-12-18T13:38:23.507Z,101386.59
2022-12-18T13:40:58.883Z,101373.53
2022-12-18T13:43:17.298Z,101377.03
2022-12-18T13:45:47.464Z,101382.25
2022-12-18T13:47:52.043Z,101384.88
2022-12-18T13:49:55.312Z,101383.16
2022-12-18T13:51:58.524Z,101382.25
2022-12-18T13:54:03.298Z,101383.16
2022-12-18T13:56:07.696Z,101388.38
2022-12-18T13:58:14.533Z,101386.59
2022-12-18T14:00:27.563Z,101382.25
2022-12-18T14:02:31.698Z,101390.09
2022-12-18T14:04:36.042Z,101384.81
2022-12-18T14:06:39.157Z,101389.19
2022-12-18T14:08:44.881Z,101388.25
2022-12-18T14:10:50.215Z,101386.50
2022-12-18T14:13:01.101Z,101384.75
2022-12-18T14:15:12.022Z,101376.00
2022-12-18T14:17:16.134Z,101382.91
2022-12-18T14:19:20.766Z,101377.63
2022-12-18T14:21:27.261Z,101376.66
2022-12-18T14:23:33.059Z,101373.16
2022-12-18T14:25:36.558Z,101373.94
2022-12-18T14:27:40.167Z,101372.19
2022-12-18T14:29:45.622Z,101373.88
2022-12-18T14:31:48.701Z,101373.84
2022-12-18T14:33:53.703Z,101359.03
2022-12-18T14:35:59.732Z,101356.41
2022-12-18T14:38:27.379Z,101352.91
2022-12-18T14:40:30.478Z,101346.69
2022-12-18T14:42:34.838Z,101346.69
2022-12-18T14:44:50.553Z,101341.44
2022-12-18T14:47:04.143Z,101340.56
2022-12-18T14:49:21.066Z,101325.81
2022-12-18T14:51:25.939Z,101317.13
2022-12-18T14:53:42.231Z,101319.69
2022-12-18T14:55:50.403Z,101302.38
2022-12-18T14:57:56.939Z,101298.91
2022-12-18T15:00:07.141Z,101288.59
2022-12-18T15:02:21.082Z,101284.28
2022-12-18T15:04:30.757Z,101282.56
2022-12-18T15:06:36.449Z,101275.72
2022-12-18T15:08:39.802Z,101275.72
2022-12-18T15:10:49.757Z,101275.78
2022-12-18T15:13:11.249Z,101261.00
2022-12-18T15:15:54.408Z,101259.31
2022-12-18T15:18:07.629Z,101268.00
2022-12-18T15:20:12.720Z,101260.22
2022-12-18T15:22:23.632Z,101265.44
2022-12-18T15:24:29.678Z,101271.47
2022-12-18T15:26:39.007Z,101267.16
2022-12-18T15:28:48.078Z,101269.75
2022-12-18T15:31:03.554Z,101254.13
2022-12-18T15:33:27.014Z,101258.50
2022-12-18T15:35:32.519Z,101256.72
2022-12-18T15:37:36.236Z,101251.50
2022-12-18T15:39:39.626Z,101250.63
2022-12-18T15:42:05.675Z,101259.34
2022-12-18T15:44:23.800Z,101258.44
2022-12-18T15:46:27.836Z,101249.75
2022-12-18T15:48:37.771Z,101250.63
2022-12-18T15:50:42.956Z,101248.91
2022-12-18T15:52:50.294Z,101245.41
2022-12-18T15:55:12.903Z,101241.91
2022-12-18T15:57:38.139Z,101248.00
2022-12-18T15:59:50.209Z,101244.53
2022-12-18T16:01:56.897Z,101238.41
2022-12-18T16:04:10.524Z,101235.81
2022-12-18T16:06:17.481Z,101239.25
2022-12-18T16:08:23.286Z,101242.72
2022-12-18T16:10:32.190Z,101254.03
2022-12-18T16:12:37.516Z,101245.34
2022-12-18T16:14:44.735Z,101246.22
2022-12-18T16:16:54.179Z,101254.03
2022-12-18T16:19:01.176Z,101240.13
2022-12-18T16:21:14.669Z,101237.53
2022-12-18T16:23:20.807Z,101243.56
2022-12-18T16:25:31.973Z,101233.94
2022-12-18T16:27:34.947Z,101234.78
2022-12-18T16:29:39.244Z,101234.78
2022-12-18T16:31:44.816Z,101236.50
2022-12-18T16:33:51.933Z,101239.97
2022-12-18T16:35:58.943Z,101233.81
2022-12-18T16:40:28.789Z,101232.09
2022-12-18T16:42:58.448Z,101231.25
2022-12-18T16:45:07.309Z,101226.00
2022-12-18T16:47:14.931Z,101220.78
2022-12-18T16:49:25.476Z,101219.00
2022-12-18T16:51:31.486Z,101224.19
2022-12-18T16:53:47.723Z,101236.31
2022-12-18T16:55:59.944Z,101236.38
2022-12-18T16:58:06.156Z,101239.00
2022-12-18T17:00:13.416Z,101227.69
2022-12-18T17:02:22.816Z,101222.47
2022-12-18T17:04:27.615Z,101222.47
2022-12-18T17:06:32.617Z,101231.16
2022-12-18T17:08:35.549Z,101237.22
2022-12-18T17:10:39.782Z,101233.78
2022-12-18T17:12:42.895Z,101233.72
2022-12-18T17:14:46.849Z,101234.50
2022-12-18T17:17:07.309Z,101222.41
2022-12-18T17:19:17.062Z,101225.00
2022-12-18T17:21:20.765Z,101222.41
2022-12-18T17:23:23.649Z,101231.91
2022-12-18T17:25:26.543Z,101226.72
2022-12-18T17:27:31.231Z,101225.88
2022-12-18T17:29:34.284Z,101218.00
2022-12-18T17:31:37.344Z,101215.47
2022-12-18T17:33:40.692Z,101219.78
2022-12-18T17:35:43.900Z,101213.66
2022-12-18T17:37:48.483Z,101208.47
2022-12-18T17:39:51.349Z,101208.47
2022-12-18T17:41:54.254Z,101204.16
2022-12-18T17:44:00.096Z,101206.78
2022-12-18T17:46:03.240Z,101196.34
2022-12-18T17:48:08.481Z,101187.66
2022-12-18T17:50:13.496Z,101197.25
2022-12-18T17:52:16.333Z,101202.47
2022-12-18T17:54:19.287Z,101198.97
2022-12-18T17:56:23.543Z,101195.47
2022-12-18T17:58:26.662Z,101205.88
2022-12-18T18:00:30.994Z,101202.47
2022-12-18T18:02:34.034Z,101198.97
2022-12-18T18:04:36.957Z,101192.94
2022-12-18T18:06:39.936Z,101205.06
2022-12-18T18:08:42.881Z,101203.34
2022-12-18T18:10:48.853Z,101212.03
2022-12-18T18:13:08.933Z,101217.25
2022-12-18T18:15:12.875Z,101217.25
2022-12-18T18:17:17.188Z,101210.28
2022-12-18T18:19:21.498Z,101215.47
2022-12-18T18:21:24.458Z,101203.28
2022-12-18T18:23:31.275Z,101201.47
2022-12-18T18:25:37.324Z,101212.72
2022-12-18T18:27:40.708Z,101204.91
2022-12-18T18:29:43.766Z,101198.75
2022-12-18T18:31:46.780Z,101208.38
2022-12-18T18:33:51.122Z,101215.19
2022-12-18T18:35:54.716Z,101211.75
2022-12-18T18:37:57.889Z,101199.59
2022-12-18T18:40:00.795Z,101215.19
2022-12-18T18:42:03.777Z,101212.59
2022-12-18T18:44:06.850Z,101209.09
2022-12-18T18:46:13.408Z,101223.78
2022-12-18T18:48:16.328Z,101216.00
2022-12-18T18:50:20.667Z,101225.59
2022-12-18T18:52:23.528Z,101229.06
2022-12-18T18:54:26.665Z,101222.84
2022-12-18T18:58:53.063Z,101221.97
2022-12-18T19:00:57.560Z,101226.34
2022-12-18T19:03:01.099Z,101216.75
2022-12-18T19:05:04.465Z,101221.84
2022-12-18T19:07:08.821Z,101232.28
2022-12-18T19:09:12.455Z,101244.38
2022-12-18T19:11:36.334Z,101238.34
2022-12-18T19:13:39.966Z,101231.22
2022-12-18T19:15:43.673Z,101232.13
2022-12-18T19:17:47.130Z,101231.31
2022-12-18T19:19:54.592Z,101240.03
2022-12-18T19:21:57.595Z,101238.19
2022-12-18T19:24:02.527Z,101238.22
2022-12-18T19:28:30.020Z,101245.22
2022-12-18T19:30:33.033Z,101251.22
2022-12-18T19:32:36.350Z,101242.59
2022-12-18T19:34:39.567Z,101247.78
2022-12-18T19:36:42.643Z,101247.72
2022-12-18T19:38:45.732Z,101245.09
2022-12-18T19:40:50.678Z,101250.31
2022-12-18T19:42:53.920Z,101245.06
2022-12-18T19:44:57.144Z,101245.97
2022-12-18T19:46:59.993Z,101232.91
2022-12-18T19:49:03.431Z,101245.09
2022-12-18T19:51:08.620Z,101236.50
2022-12-18T19:53:11.526Z,101225.19
2022-12-18T19:55:14.546Z,101231.31
2022-12-18T19:57:18.830Z,101220.91
2022-12-18T19:59:21.817Z,101222.56
2022-12-18T20:01:26.050Z,101227.69
2022-12-18T20:03:32.664Z,101221.69
2022-12-18T20:05:35.874Z,101216.50
2022-12-18T20:07:38.978Z,101218.28
2022-12-18T20:09:43.992Z,101218.28
2022-12-18T20:11:47.751Z,101205.31
2022-12-18T20:13:52.190Z,101201.84
2022-12-18T20:15:55.154Z,101213.94
2022-12-18T20:18:00.886Z,101203.50
2022-12-18T20:20:04.102Z,101209.56
2022-12-18T20:22:07.177Z,101189.69
2022-12-18T20:24:10.156Z,101201.84
2022-12-18T20:26:13.348Z,101194.91
2022-12-18T20:28:16.410Z,101185.41
2022-12-18T20:30:20.710Z,101194.94
2022-12-18T20:32:23.731Z,101202.72
2022-12-18T20:34:26.791Z,101205.44
2022-12-18T20:36:30.811Z,101197.63
2022-12-18T20:38:38.414Z,101207.22
2022-12-18T20:40:42.087Z,101200.31
2022-12-18T20:42:45.112Z,101201.22
2022-12-18T20:44:48.009Z,101200.34
2022-12-18T20:46:53.857Z,101196.03
2022-12-18T20:48:57.897Z,101205.56
2022-12-18T20:51:02.592Z,101204.78
2022-12-18T20:53:07.061Z,101201.28
2022-12-18T20:55:10.675Z,101210.88
2022-12-18T20:57:13.645Z,101216.97
2022-12-18T20:59:18.379Z,101210.88
2022-12-18T21:01:22.230Z,101208.34
2022-12-18T21:03:26.865Z,101212.69
2022-12-18T21:05:30.379Z,101207.47
2022-12-18T21:07:33.503Z,101205.66
2022-12-18T21:09:37.443Z,101197.84
2022-12-18T21:11:58.955Z,101217.78
2022-12-18T21:14:02.481Z,101207.34
2022-12-18T21:16:05.772Z,101202.16
2022-12-18T21:18:10.216Z,101200.38
2022-12-18T21:20:17.542Z,101201.25
2022-12-18T21:22:21.297Z,101204.66
2022-12-18T21:24:27.245Z,101211.56
2022-12-18T21:26:33.642Z,101206.34
2022-12-18T21:28:36.546Z,101213.31
2022-12-18T21:30:39.741Z,101212.38
2022-12-18T21:32:42.725Z,101213.28
2022-12-18T21:34:48.231Z,101209.72
2022-12-18T21:36:56.056Z,101227.91
2022-12-18T21:39:01.526Z,101221.00
2022-12-18T21:41:07.691Z,101233.09
2022-12-18T21:43:28.383Z,101208.72
2022-12-18T21:45:31.423Z,101211.31
2022-12-18T21:47:34.352Z,101212.25
2022-12-18T21:49:37.412Z,101209.63
2022-12-18T21:51:42.694Z,101212.31
2022-12-18T21:53:47.465Z,101205.34
2022-12-18T21:55:58.619Z,101196.69
2022-12-18T21:58:01.888Z,101190.66
2022-12-18T22:00:06.202Z,101192.41
2022-12-18T22:02:17.423Z,101185.53
2022-12-18T22:04:21.144Z,101187.34
2022-12-18T22:06:24.694Z,101184.72
2022-12-18T22:08:28.161Z,101183.00
2022-12-18T22:10:32.735Z,101168.25
2022-12-18T22:12:43.812Z,101167.44
2022-12-18T22:14:47.755Z,101171.81
2022-12-18T22:16:51.247Z,101179.66
2022-12-18T22:18:55.028Z,101165.75
2022-12-18T22:21:04.050Z,101168.38
2022-12-18T22:23:06.933Z,101166.66
2022-12-18T22:25:10.955Z,101158.03
2022-12-18T22:27:15.628Z,101170.16
2022-12-18T22:29:37.923Z,101165.00
2022-12-18T22:31:41.401Z,101170.25
2022-12-18T22:33:44.390Z,101165.03
2022-12-18T22:35:49.440Z,101165.03
2022-12-18T22:37:52.433Z,101152.00
2022-12-18T22:39:55.375Z,101152.91
2022-12-18T22:41:58.779Z,101149.41
2022-12-18T22:44:03.448Z,101149.41
2022-12-18T22:46:06.643Z,101165.84
2022-12-18T22:48:09.557Z,101160.66
2022-12-18T22:50:13.793Z,101156.31
2022-12-18T22:52:16.689Z,101152.84
2022-12-18T22:54:22.749Z,101146.75
2022-12-18T22:56:25.995Z,101158.03
2022-12-18T22:58:29.006Z,101153.72
2022-12-18T23:00:33.701Z,101160.63
2022-12-18T23:02:37.019Z,101164.13
2022-12-18T23:04:40.103Z,101162.44
2022-12-18T23:06:44.173Z,101158.91
2022-12-18T23:08:51.683Z,101138.09
2022-12-18T23:10:57.416Z,101146.72
2022-12-18T23:13:00.559Z,101138.94
2022-12-18T23:15:04.029Z,101139.81
2022-12-18T23:17:08.435Z,101137.22
2022-12-18T23:19:11.701Z,101139.75
2022-12-18T23:21:16.353Z,101132.00
2022-12-18T23:23:20.257Z,101144.94
2022-12-18T23:25:23.376Z,101140.59
2022-12-18T23:27:26.338Z,101143.22
2022-12-18T23:29:29.280Z,101144.09
2022-12-18T23:31:33.767Z,101143.13
2022-12-18T23:33:38.142Z,101119.72
2022-12-18T23:35:41.315Z,101118.91
2022-12-18T23:38:00.522Z,101118.91
2022-12-18T23:40:03.952Z,101114.59
2022-12-18T23:42:07.005Z,101112.00
2022-12-18T23:44:11.049Z,101112.88
2022-12-18T23:46:14.855Z,101121.59
2022-12-18T23:48:18.068Z,101119.00
2022-12-18T23:50:28.780Z,101116.41
2022-12-18T23:52:32.676Z,101105.97
2022-12-18T23:54:35.574Z,101110.31
2022-12-18T23:56:38.510Z,101104.22
2022-12-18T23:58:42.539Z,101099.91
